Terminal Aerodrome Forecast
Issued by NWS Quad Cities IA IL

Home | Current Version | Previous Version | Text Only | Print | Product List | Glossary On
Versions: 1 2 3 4 5 6 7 8 9 10 11 12 13 14 15 16 17 18
000
FTUS43 KDVN 131600 AAC
TAFDBQ
TAF AMD
KDBQ 131605Z 1316/1412 03010KT 4SM SHRA BR VCTS SCT008 OVC025CB
     FM131800 02012KT 1 1/2SM SHRA BR VCTS BKN008CB
     FM140100 34015G25KT 2SM -RA BR OVC004
     FM140900 33022G29KT 3SM -RASN BR OVC010=

USA.gov is the U.S. government's official web portal to all federal, state and local government web resources and services.